sensor_id;sensor_type;location;lat;lon;timestamp;P1;durP1;ratioP1;P2;durP2;ratioP2
49123;SDS011;48506;48.202;16.274;2023-03-08T00:00:32;25.92;;;12.23;;
49123;SDS011;48506;48.202;16.274;2023-03-08T00:02:58;27.65;;;13.75;;
49123;SDS011;48506;48.202;16.274;2023-03-08T00:05:24;22.63;;;11.95;;
49123;SDS011;48506;48.202;16.274;2023-03-08T00:07:53;26.92;;;11.90;;
49123;SDS011;48506;48.202;16.274;2023-03-08T00:10:20;25.47;;;12.60;;
49123;SDS011;48506;48.202;16.274;2023-03-08T00:12:47;22.30;;;10.50;;
49123;SDS011;48506;48.202;16.274;2023-03-08T00:15:12;24.05;;;12.88;;
49123;SDS011;48506;48.202;16.274;2023-03-08T00:17:39;23.55;;;12.38;;
49123;SDS011;48506;48.202;16.274;2023-03-08T00:20:06;23.10;;;10.98;;
49123;SDS011;48506;48.202;16.274;2023-03-08T00:22:37;22.55;;;10.43;;
49123;SDS011;48506;48.202;16.274;2023-03-08T00:25:04;24.35;;;11.23;;
49123;SDS011;48506;48.202;16.274;2023-03-08T00:27:33;18.95;;;10.35;;
49123;SDS011;48506;48.202;16.274;2023-03-08T00:30:01;18.98;;;9.52;;
49123;SDS011;48506;48.202;16.274;2023-03-08T00:32:28;23.50;;;12.27;;
49123;SDS011;48506;48.202;16.274;2023-03-08T00:34:54;18.70;;;10.55;;
49123;SDS011;48506;48.202;16.274;2023-03-08T00:37:20;16.65;;;8.82;;
49123;SDS011;48506;48.202;16.274;2023-03-08T00:39:49;17.45;;;9.85;;
49123;SDS011;48506;48.202;16.274;2023-03-08T00:42:17;21.08;;;9.55;;
49123;SDS011;48506;48.202;16.274;2023-03-08T00:44:46;19.85;;;9.45;;
49123;SDS011;48506;48.202;16.274;2023-03-08T00:47:13;20.55;;;8.05;;
49123;SDS011;48506;48.202;16.274;2023-03-08T00:49:40;16.77;;;8.52;;
49123;SDS011;48506;48.202;16.274;2023-03-08T00:52:06;16.63;;;7.57;;
49123;SDS011;48506;48.202;16.274;2023-03-08T00:54:33;14.65;;;7.60;;
49123;SDS011;48506;48.202;16.274;2023-03-08T00:56:59;17.55;;;7.57;;
49123;SDS011;48506;48.202;16.274;2023-03-08T00:59:25;17.38;;;7.63;;
49123;SDS011;48506;48.202;16.274;2023-03-08T01:01:51;12.57;;;6.78;;
49123;SDS011;48506;48.202;16.274;2023-03-08T01:04:17;12.25;;;6.22;;
49123;SDS011;48506;48.202;16.274;2023-03-08T01:06:43;11.07;;;6.13;;
49123;SDS011;48506;48.202;16.274;2023-03-08T01:09:10;14.48;;;6.78;;
49123;SDS011;48506;48.202;16.274;2023-03-08T01:11:37;12.82;;;6.13;;
49123;SDS011;48506;48.202;16.274;2023-03-08T01:14:04;12.88;;;6.32;;
49123;SDS011;48506;48.202;16.274;2023-03-08T01:16:32;15.52;;;5.80;;
49123;SDS011;48506;48.202;16.274;2023-03-08T01:18:59;10.63;;;5.80;;
49123;SDS011;48506;48.202;16.274;2023-03-08T01:21:28;10.30;;;6.35;;
49123;SDS011;48506;48.202;16.274;2023-03-08T01:23:55;11.77;;;6.18;;
49123;SDS011;48506;48.202;16.274;2023-03-08T01:26:22;11.35;;;6.25;;
49123;SDS011;48506;48.202;16.274;2023-03-08T01:28:49;12.07;;;6.50;;
49123;SDS011;48506;48.202;16.274;2023-03-08T01:31:20;16.58;;;7.30;;
49123;SDS011;48506;48.202;16.274;2023-03-08T01:33:48;11.93;;;6.20;;
49123;SDS011;48506;48.202;16.274;2023-03-08T01:36:16;13.38;;;7.10;;
49123;SDS011;48506;48.202;16.274;2023-03-08T01:38:44;12.43;;;6.28;;
49123;SDS011;48506;48.202;16.274;2023-03-08T01:41:17;10.07;;;6.50;;
49123;SDS011;48506;48.202;16.274;2023-03-08T01:43:49;12.07;;;6.93;;
49123;SDS011;48506;48.202;16.274;2023-03-08T01:48:53;11.20;;;6.22;;
49123;SDS011;48506;48.202;16.274;2023-03-08T01:51:23;15.90;;;6.72;;
49123;SDS011;48506;48.202;16.274;2023-03-08T01:53:55;12.85;;;7.28;;
49123;SDS011;48506;48.202;16.274;2023-03-08T01:56:23;11.93;;;6.45;;
49123;SDS011;48506;48.202;16.274;2023-03-08T01:58:51;12.70;;;6.63;;
49123;SDS011;48506;48.202;16.274;2023-03-08T02:01:18;12.40;;;6.72;;
49123;SDS011;48506;48.202;16.274;2023-03-08T02:03:46;14.15;;;6.78;;
49123;SDS011;48506;48.202;16.274;2023-03-08T02:06:13;12.13;;;6.72;;
49123;SDS011;48506;48.202;16.274;2023-03-08T02:08:41;11.63;;;6.53;;
49123;SDS011;48506;48.202;16.274;2023-03-08T02:11:08;14.90;;;6.90;;
49123;SDS011;48506;48.202;16.274;2023-03-08T02:13:36;17.23;;;7.47;;
49123;SDS011;48506;48.202;16.274;2023-03-08T02:16:05;13.27;;;7.00;;
49123;SDS011;48506;48.202;16.274;2023-03-08T02:18:35;14.32;;;7.88;;
49123;SDS011;48506;48.202;16.274;2023-03-08T02:21:01;13.18;;;6.65;;
49123;SDS011;48506;48.202;16.274;2023-03-08T02:23:27;13.68;;;7.63;;
49123;SDS011;48506;48.202;16.274;2023-03-08T02:25:56;15.30;;;6.90;;
49123;SDS011;48506;48.202;16.274;2023-03-08T02:28:26;14.63;;;7.65;;
49123;SDS011;48506;48.202;16.274;2023-03-08T02:30:54;12.45;;;7.35;;
49123;SDS011;48506;48.202;16.274;2023-03-08T02:33:20;13.15;;;7.75;;
49123;SDS011;48506;48.202;16.274;2023-03-08T02:35:47;13.32;;;7.60;;
49123;SDS011;48506;48.202;16.274;2023-03-08T02:38:14;15.30;;;7.68;;
49123;SDS011;48506;48.202;16.274;2023-03-08T02:40:42;14.07;;;7.75;;
49123;SDS011;48506;48.202;16.274;2023-03-08T02:43:09;15.23;;;7.70;;
49123;SDS011;48506;48.202;16.274;2023-03-08T02:45:35;13.60;;;7.85;;
49123;SDS011;48506;48.202;16.274;2023-03-08T02:48:01;15.27;;;7.93;;
49123;SDS011;48506;48.202;16.274;2023-03-08T02:50:28;13.65;;;7.38;;
49123;SDS011;48506;48.202;16.274;2023-03-08T02:52:55;18.60;;;8.60;;
49123;SDS011;48506;48.202;16.274;2023-03-08T02:55:22;14.32;;;7.63;;
49123;SDS011;48506;48.202;16.274;2023-03-08T02:57:48;15.93;;;7.60;;
49123;SDS011;48506;48.202;16.274;2023-03-08T03:00:15;17.48;;;8.88;;
49123;SDS011;48506;48.202;16.274;2023-03-08T03:02:41;15.00;;;7.85;;
49123;SDS011;48506;48.202;16.274;2023-03-08T03:05:07;12.95;;;7.43;;
49123;SDS011;48506;48.202;16.274;2023-03-08T03:07:38;15.50;;;8.10;;
49123;SDS011;48506;48.202;16.274;2023-03-08T03:10:07;17.60;;;8.48;;
49123;SDS011;48506;48.202;16.274;2023-03-08T03:12:35;13.77;;;6.88;;
49123;SDS011;48506;48.202;16.274;2023-03-08T03:15:01;16.38;;;8.10;;
49123;SDS011;48506;48.202;16.274;2023-03-08T03:17:28;16.58;;;9.05;;
49123;SDS011;48506;48.202;16.274;2023-03-08T03:19:55;17.40;;;8.60;;
49123;SDS011;48506;48.202;16.274;2023-03-08T03:22:21;17.40;;;9.10;;
49123;SDS011;48506;48.202;16.274;2023-03-08T03:24:48;17.02;;;8.90;;
49123;SDS011;48506;48.202;16.274;2023-03-08T03:27:15;14.68;;;8.18;;
49123;SDS011;48506;48.202;16.274;2023-03-08T03:29:42;15.52;;;8.27;;
49123;SDS011;48506;48.202;16.274;2023-03-08T03:32:08;13.32;;;7.38;;
49123;SDS011;48506;48.202;16.274;2023-03-08T03:34:34;14.40;;;7.18;;
49123;SDS011;48506;48.202;16.274;2023-03-08T03:37:00;16.77;;;8.68;;
49123;SDS011;48506;48.202;16.274;2023-03-08T03:39:26;19.33;;;8.98;;
49123;SDS011;48506;48.202;16.274;2023-03-08T03:41:58;21.42;;;9.02;;
49123;SDS011;48506;48.202;16.274;2023-03-08T03:44:25;19.52;;;8.00;;
49123;SDS011;48506;48.202;16.274;2023-03-08T03:46:54;11.60;;;6.05;;
49123;SDS011;48506;48.202;16.274;2023-03-08T03:49:21;17.23;;;8.73;;
49123;SDS011;48506;48.202;16.274;2023-03-08T03:51:47;14.55;;;7.82;;
49123;SDS011;48506;48.202;16.274;2023-03-08T03:54:13;15.05;;;7.45;;
49123;SDS011;48506;48.202;16.274;2023-03-08T03:56:39;14.25;;;8.20;;
49123;SDS011;48506;48.202;16.274;2023-03-08T03:59:05;14.43;;;8.05;;
49123;SDS011;48506;48.202;16.274;2023-03-08T04:01:30;18.10;;;8.55;;
49123;SDS011;48506;48.202;16.274;2023-03-08T04:03:57;15.70;;;8.77;;
49123;SDS011;48506;48.202;16.274;2023-03-08T04:06:24;18.25;;;8.82;;
49123;SDS011;48506;48.202;16.274;2023-03-08T04:08:55;14.63;;;8.27;;
49123;SDS011;48506;48.202;16.274;2023-03-08T04:11:27;16.60;;;8.25;;
49123;SDS011;48506;48.202;16.274;2023-03-08T04:13:57;16.52;;;8.25;;
49123;SDS011;48506;48.202;16.274;2023-03-08T04:16:24;12.80;;;7.63;;
49123;SDS011;48506;48.202;16.274;2023-03-08T04:18:52;15.02;;;8.13;;
49123;SDS011;48506;48.202;16.274;2023-03-08T04:21:20;17.23;;;8.45;;
49123;SDS011;48506;48.202;16.274;2023-03-08T04:23:47;16.45;;;8.68;;
49123;SDS011;48506;48.202;16.274;2023-03-08T04:26:13;14.93;;;7.93;;
49123;SDS011;48506;48.202;16.274;2023-03-08T04:28:39;14.68;;;8.23;;
49123;SDS011;48506;48.202;16.274;2023-03-08T04:31:19;14.55;;;8.35;;
49123;SDS011;48506;48.202;16.274;2023-03-08T04:33:47;14.60;;;7.90;;
49123;SDS011;48506;48.202;16.274;2023-03-08T04:36:14;16.50;;;8.50;;
49123;SDS011;48506;48.202;16.274;2023-03-08T04:38:42;15.07;;;8.55;;
49123;SDS011;48506;48.202;16.274;2023-03-08T04:41:10;13.90;;;8.10;;
49123;SDS011;48506;48.202;16.274;2023-03-08T04:43:37;16.88;;;8.05;;
49123;SDS011;48506;48.202;16.274;2023-03-08T04:46:11;16.13;;;8.32;;
49123;SDS011;48506;48.202;16.274;2023-03-08T04:48:38;16.42;;;7.90;;
49123;SDS011;48506;48.202;16.274;2023-03-08T04:51:05;15.63;;;8.38;;
49123;SDS011;48506;48.202;16.274;2023-03-08T04:53:31;14.90;;;8.18;;
49123;SDS011;48506;48.202;16.274;2023-03-08T04:55:57;18.67;;;7.80;;
49123;SDS011;48506;48.202;16.274;2023-03-08T04:58:27;16.10;;;6.83;;
49123;SDS011;48506;48.202;16.274;2023-03-08T05:00:54;18.30;;;10.13;;
49123;SDS011;48506;48.202;16.274;2023-03-08T05:03:21;16.98;;;8.65;;
49123;SDS011;48506;48.202;16.274;2023-03-08T05:05:51;19.98;;;9.38;;
49123;SDS011;48506;48.202;16.274;2023-03-08T05:08:19;18.85;;;8.90;;
49123;SDS011;48506;48.202;16.274;2023-03-08T05:13:19;20.90;;;10.10;;
49123;SDS011;48506;48.202;16.274;2023-03-08T05:15:45;18.25;;;8.75;;
49123;SDS011;48506;48.202;16.274;2023-03-08T05:18:11;14.65;;;8.35;;
49123;SDS011;48506;48.202;16.274;2023-03-08T05:20:37;19.17;;;9.23;;
49123;SDS011;48506;48.202;16.274;2023-03-08T05:23:03;19.85;;;9.60;;
49123;SDS011;48506;48.202;16.274;2023-03-08T05:25:29;18.35;;;9.40;;
49123;SDS011;48506;48.202;16.274;2023-03-08T05:27:55;16.65;;;8.70;;
49123;SDS011;48506;48.202;16.274;2023-03-08T05:30:22;20.83;;;10.57;;
49123;SDS011;48506;48.202;16.274;2023-03-08T05:32:48;16.70;;;9.65;;
49123;SDS011;48506;48.202;16.274;2023-03-08T05:35:14;15.68;;;8.57;;
49123;SDS011;48506;48.202;16.274;2023-03-08T05:37:40;13.43;;;8.27;;
49123;SDS011;48506;48.202;16.274;2023-03-08T05:40:05;16.73;;;8.57;;
49123;SDS011;48506;48.202;16.274;2023-03-08T05:42:32;17.42;;;9.18;;
49123;SDS011;48506;48.202;16.274;2023-03-08T05:44:58;20.33;;;9.77;;
49123;SDS011;48506;48.202;16.274;2023-03-08T05:47:24;17.42;;;9.38;;
49123;SDS011;48506;48.202;16.274;2023-03-08T05:49:50;20.23;;;11.05;;
49123;SDS011;48506;48.202;16.274;2023-03-08T05:52:16;21.23;;;10.20;;
49123;SDS011;48506;48.202;16.274;2023-03-08T05:54:42;19.27;;;9.57;;
49123;SDS011;48506;48.202;16.274;2023-03-08T05:57:08;18.15;;;9.23;;
49123;SDS011;48506;48.202;16.274;2023-03-08T05:59:34;15.68;;;8.35;;
49123;SDS011;48506;48.202;16.274;2023-03-08T06:02:01;19.00;;;10.07;;
49123;SDS011;48506;48.202;16.274;2023-03-08T06:04:27;16.50;;;9.65;;
49123;SDS011;48506;48.202;16.274;2023-03-08T06:06:53;19.58;;;9.82;;
49123;SDS011;48506;48.202;16.274;2023-03-08T06:09:19;16.90;;;8.50;;
49123;SDS011;48506;48.202;16.274;2023-03-08T06:11:45;15.82;;;8.80;;
49123;SDS011;48506;48.202;16.274;2023-03-08T06:14:11;20.08;;;8.73;;
49123;SDS011;48506;48.202;16.274;2023-03-08T06:16:37;17.05;;;9.00;;
49123;SDS011;48506;48.202;16.274;2023-03-08T06:19:03;18.50;;;9.57;;
49123;SDS011;48506;48.202;16.274;2023-03-08T06:21:29;17.73;;;9.27;;
49123;SDS011;48506;48.202;16.274;2023-03-08T06:23:55;19.42;;;9.25;;
49123;SDS011;48506;48.202;16.274;2023-03-08T06:26:21;16.00;;;8.73;;
49123;SDS011;48506;48.202;16.274;2023-03-08T06:28:48;21.15;;;9.10;;
49123;SDS011;48506;48.202;16.274;2023-03-08T06:31:16;15.05;;;9.10;;
49123;SDS011;48506;48.202;16.274;2023-03-08T06:33:44;17.20;;;8.75;;
49123;SDS011;48506;48.202;16.274;2023-03-08T06:36:11;15.68;;;8.40;;
49123;SDS011;48506;48.202;16.274;2023-03-08T06:38:40;17.80;;;9.25;;
49123;SDS011;48506;48.202;16.274;2023-03-08T06:41:07;14.38;;;7.85;;
49123;SDS011;48506;48.202;16.274;2023-03-08T06:43:35;17.30;;;8.07;;
49123;SDS011;48506;48.202;16.274;2023-03-08T06:46:03;15.25;;;7.97;;
49123;SDS011;48506;48.202;16.274;2023-03-08T06:48:34;12.60;;;7.75;;
49123;SDS011;48506;48.202;16.274;2023-03-08T06:51:02;16.77;;;9.45;;
49123;SDS011;48506;48.202;16.274;2023-03-08T06:53:29;15.55;;;8.48;;
49123;SDS011;48506;48.202;16.274;2023-03-08T06:55:55;15.18;;;8.30;;
49123;SDS011;48506;48.202;16.274;2023-03-08T06:58:22;15.20;;;8.52;;
49123;SDS011;48506;48.202;16.274;2023-03-08T07:00:48;14.43;;;8.02;;
49123;SDS011;48506;48.202;16.274;2023-03-08T07:03:15;16.20;;;9.10;;
49123;SDS011;48506;48.202;16.274;2023-03-08T07:05:41;13.07;;;7.40;;
49123;SDS011;48506;48.202;16.274;2023-03-08T07:08:07;19.92;;;9.30;;
49123;SDS011;48506;48.202;16.274;2023-03-08T07:10:33;14.98;;;8.43;;
49123;SDS011;48506;48.202;16.274;2023-03-08T07:12:59;13.75;;;8.30;;
49123;SDS011;48506;48.202;16.274;2023-03-08T07:15:25;14.73;;;7.78;;
49123;SDS011;48506;48.202;16.274;2023-03-08T07:17:52;12.73;;;7.43;;
49123;SDS011;48506;48.202;16.274;2023-03-08T07:20:23;14.60;;;8.25;;
49123;SDS011;48506;48.202;16.274;2023-03-08T07:22:51;15.48;;;7.50;;
49123;SDS011;48506;48.202;16.274;2023-03-08T07:25:19;11.68;;;7.30;;
49123;SDS011;48506;48.202;16.274;2023-03-08T07:27:46;18.35;;;7.80;;
49123;SDS011;48506;48.202;16.274;2023-03-08T07:30:14;11.88;;;7.03;;
49123;SDS011;48506;48.202;16.274;2023-03-08T07:32:41;15.57;;;7.50;;
49123;SDS011;48506;48.202;16.274;2023-03-08T07:35:08;15.23;;;6.40;;
49123;SDS011;48506;48.202;16.274;2023-03-08T07:37:36;13.65;;;6.75;;
49123;SDS011;48506;48.202;16.274;2023-03-08T07:40:03;13.25;;;6.35;;
49123;SDS011;48506;48.202;16.274;2023-03-08T07:42:30;14.45;;;6.72;;
49123;SDS011;48506;48.202;16.274;2023-03-08T07:44:56;14.43;;;6.55;;
49123;SDS011;48506;48.202;16.274;2023-03-08T07:47:23;11.70;;;6.85;;
49123;SDS011;48506;48.202;16.274;2023-03-08T07:49:50;12.55;;;7.32;;
49123;SDS011;48506;48.202;16.274;2023-03-08T07:52:16;15.35;;;7.65;;
49123;SDS011;48506;48.202;16.274;2023-03-08T07:54:42;11.68;;;6.32;;
49123;SDS011;48506;48.202;16.274;2023-03-08T07:57:11;11.45;;;5.80;;
49123;SDS011;48506;48.202;16.274;2023-03-08T07:59:39;9.68;;;5.13;;
49123;SDS011;48506;48.202;16.274;2023-03-08T08:02:12;11.38;;;5.13;;
49123;SDS011;48506;48.202;16.274;2023-03-08T08:04:39;9.10;;;5.22;;
49123;SDS011;48506;48.202;16.274;2023-03-08T08:07:10;9.30;;;5.18;;
49123;SDS011;48506;48.202;16.274;2023-03-08T08:09:38;10.90;;;5.90;;
49123;SDS011;48506;48.202;16.274;2023-03-08T08:12:04;10.60;;;4.68;;
49123;SDS011;48506;48.202;16.274;2023-03-08T08:14:31;11.85;;;5.18;;
49123;SDS011;48506;48.202;16.274;2023-03-08T08:16:57;8.77;;;4.65;;
49123;SDS011;48506;48.202;16.274;2023-03-08T08:19:23;7.68;;;4.55;;
49123;SDS011;48506;48.202;16.274;2023-03-08T08:21:50;7.13;;;4.63;;
49123;SDS011;48506;48.202;16.274;2023-03-08T08:24:16;7.45;;;4.50;;
49123;SDS011;48506;48.202;16.274;2023-03-08T08:26:42;10.38;;;4.78;;
49123;SDS011;48506;48.202;16.274;2023-03-08T08:29:08;6.88;;;3.90;;
49123;SDS011;48506;48.202;16.274;2023-03-08T08:31:35;8.10;;;4.57;;
49123;SDS011;48506;48.202;16.274;2023-03-08T08:34:01;8.25;;;3.92;;
49123;SDS011;48506;48.202;16.274;2023-03-08T08:36:27;7.65;;;4.35;;
49123;SDS011;48506;48.202;16.274;2023-03-08T08:38:53;7.18;;;4.00;;
49123;SDS011;48506;48.202;16.274;2023-03-08T08:41:20;7.95;;;3.78;;
49123;SDS011;48506;48.202;16.274;2023-03-08T08:43:48;8.43;;;4.15;;
49123;SDS011;48506;48.202;16.274;2023-03-08T08:46:14;8.43;;;5.18;;
49123;SDS011;48506;48.202;16.274;2023-03-08T08:48:43;8.80;;;4.78;;
49123;SDS011;48506;48.202;16.274;2023-03-08T08:51:10;6.07;;;4.18;;
49123;SDS011;48506;48.202;16.274;2023-03-08T08:53:38;6.50;;;4.40;;
49123;SDS011;48506;48.202;16.274;2023-03-08T08:56:15;7.25;;;4.05;;
49123;SDS011;48506;48.202;16.274;2023-03-08T08:58:43;11.07;;;4.50;;
49123;SDS011;48506;48.202;16.274;2023-03-08T09:01:16;8.15;;;4.75;;
49123;SDS011;48506;48.202;16.274;2023-03-08T09:03:47;8.40;;;5.45;;
49123;SDS011;48506;48.202;16.274;2023-03-08T09:06:14;8.90;;;4.23;;
49123;SDS011;48506;48.202;16.274;2023-03-08T09:08:42;9.43;;;4.32;;
49123;SDS011;48506;48.202;16.274;2023-03-08T09:11:09;8.50;;;4.20;;
49123;SDS011;48506;48.202;16.274;2023-03-08T09:13:36;8.55;;;4.85;;
49123;SDS011;48506;48.202;16.274;2023-03-08T09:16:15;11.00;;;5.43;;
49123;SDS011;48506;48.202;16.274;2023-03-08T09:18:46;11.93;;;4.53;;
49123;SDS011;48506;48.202;16.274;2023-03-08T09:21:12;7.43;;;4.25;;
49123;SDS011;48506;48.202;16.274;2023-03-08T09:23:39;8.23;;;4.65;;
49123;SDS011;48506;48.202;16.274;2023-03-08T09:26:06;10.10;;;4.82;;
49123;SDS011;48506;48.202;16.274;2023-03-08T09:28:32;9.25;;;5.35;;
49123;SDS011;48506;48.202;16.274;2023-03-08T09:30:59;9.35;;;4.88;;
49123;SDS011;48506;48.202;16.274;2023-03-08T09:33:27;10.70;;;5.72;;
49123;SDS011;48506;48.202;16.274;2023-03-08T09:35:56;8.55;;;5.10;;
49123;SDS011;48506;48.202;16.274;2023-03-08T09:38:23;8.13;;;5.15;;
49123;SDS011;48506;48.202;16.274;2023-03-08T09:46:11;8.77;;;4.90;;
49123;SDS011;48506;48.202;16.274;2023-03-08T09:48:39;9.88;;;5.07;;
49123;SDS011;48506;48.202;16.274;2023-03-08T09:51:11;9.88;;;5.38;;
49123;SDS011;48506;48.202;16.274;2023-03-08T09:56:26;7.50;;;5.28;;
49123;SDS011;48506;48.202;16.274;2023-03-08T10:07:30;7.03;;;3.65;;
49123;SDS011;48506;48.202;16.274;2023-03-08T10:12:55;8.82;;;4.75;;
49123;SDS011;48506;48.202;16.274;2023-03-08T10:15:44;9.65;;;4.82;;
49123;SDS011;48506;48.202;16.274;2023-03-08T10:18:26;8.13;;;4.00;;
49123;SDS011;48506;48.202;16.274;2023-03-08T10:21:09;9.65;;;5.00;;
49123;SDS011;48506;48.202;16.274;2023-03-08T10:23:38;10.15;;;5.82;;
49123;SDS011;48506;48.202;16.274;2023-03-08T10:26:12;10.23;;;5.80;;
49123;SDS011;48506;48.202;16.274;2023-03-08T10:28:39;8.40;;;6.20;;
49123;SDS011;48506;48.202;16.274;2023-03-08T10:31:19;10.75;;;5.90;;
49123;SDS011;48506;48.202;16.274;2023-03-08T10:33:48;9.65;;;5.13;;
49123;SDS011;48506;48.202;16.274;2023-03-08T10:36:25;7.68;;;4.88;;
49123;SDS011;48506;48.202;16.274;2023-03-08T10:41:51;10.82;;;7.22;;
49123;SDS011;48506;48.202;16.274;2023-03-08T10:44:40;13.60;;;7.28;;
49123;SDS011;48506;48.202;16.274;2023-03-08T10:47:32;10.30;;;6.43;;
49123;SDS011;48506;48.202;16.274;2023-03-08T10:52:33;14.52;;;7.18;;
49123;SDS011;48506;48.202;16.274;2023-03-08T10:57:29;13.80;;;7.23;;
49123;SDS011;48506;48.202;16.274;2023-03-08T10:59:57;13.75;;;8.02;;
49123;SDS011;48506;48.202;16.274;2023-03-08T11:02:42;13.77;;;7.93;;
49123;SDS011;48506;48.202;16.274;2023-03-08T11:07:52;14.05;;;7.80;;
49123;SDS011;48506;48.202;16.274;2023-03-08T11:10:24;15.43;;;9.20;;
49123;SDS011;48506;48.202;16.274;2023-03-08T11:13:01;14.93;;;8.40;;
49123;SDS011;48506;48.202;16.274;2023-03-08T11:16:04;21.25;;;10.38;;
49123;SDS011;48506;48.202;16.274;2023-03-08T11:24:15;18.48;;;10.80;;
49123;SDS011;48506;48.202;16.274;2023-03-08T11:40:39;19.52;;;10.23;;
49123;SDS011;48506;48.202;16.274;2023-03-08T11:48:23;17.35;;;10.25;;
49123;SDS011;48506;48.202;16.274;2023-03-08T11:57:00;18.48;;;9.60;;
49123;SDS011;48506;48.202;16.274;2023-03-08T11:59:50;20.27;;;9.75;;
49123;SDS011;48506;48.202;16.274;2023-03-08T12:02:38;21.95;;;10.05;;
49123;SDS011;48506;48.202;16.274;2023-03-08T12:05:11;18.17;;;10.52;;
49123;SDS011;48506;48.202;16.274;2023-03-08T12:07:49;20.45;;;10.63;;
49123;SDS011;48506;48.202;16.274;2023-03-08T12:10:21;18.67;;;10.30;;
49123;SDS011;48506;48.202;16.274;2023-03-08T12:18:31;16.90;;;10.15;;
49123;SDS011;48506;48.202;16.274;2023-03-08T12:21:40;20.75;;;11.52;;
49123;SDS011;48506;48.202;16.274;2023-03-08T12:26:28;18.08;;;11.38;;
49123;SDS011;48506;48.202;16.274;2023-03-08T12:29:08;23.63;;;10.90;;
49123;SDS011;48506;48.202;16.274;2023-03-08T12:31:46;23.25;;;11.23;;
49123;SDS011;48506;48.202;16.274;2023-03-08T12:34:36;18.88;;;11.77;;
49123;SDS011;48506;48.202;16.274;2023-03-08T12:37:04;20.58;;;10.65;;
49123;SDS011;48506;48.202;16.274;2023-03-08T12:40:24;17.75;;;11.38;;
49123;SDS011;48506;48.202;16.274;2023-03-08T12:43:02;22.70;;;11.63;;
49123;SDS011;48506;48.202;16.274;2023-03-08T12:45:31;23.43;;;12.27;;
49123;SDS011;48506;48.202;16.274;2023-03-08T12:50:26;25.63;;;12.85;;
49123;SDS011;48506;48.202;16.274;2023-03-08T12:52:54;22.02;;;12.18;;
49123;SDS011;48506;48.202;16.274;2023-03-08T12:55:26;23.10;;;12.35;;
49123;SDS011;48506;48.202;16.274;2023-03-08T12:57:59;24.02;;;12.25;;
49123;SDS011;48506;48.202;16.274;2023-03-08T13:03:22;29.70;;;14.98;;
49123;SDS011;48506;48.202;16.274;2023-03-08T13:05:53;27.10;;;13.50;;
49123;SDS011;48506;48.202;16.274;2023-03-08T13:08:32;26.58;;;12.73;;
49123;SDS011;48506;48.202;16.274;2023-03-08T13:11:03;25.23;;;12.68;;
49123;SDS011;48506;48.202;16.274;2023-03-08T13:16:28;24.77;;;12.77;;
49123;SDS011;48506;48.202;16.274;2023-03-08T13:19:12;19.70;;;11.20;;
49123;SDS011;48506;48.202;16.274;2023-03-08T13:27:12;23.75;;;12.82;;
49123;SDS011;48506;48.202;16.274;2023-03-08T13:33:05;25.35;;;13.50;;
49123;SDS011;48506;48.202;16.274;2023-03-08T13:35:33;23.90;;;12.27;;
49123;SDS011;48506;48.202;16.274;2023-03-08T13:37:59;22.80;;;12.65;;
49123;SDS011;48506;48.202;16.274;2023-03-08T13:40:26;26.50;;;12.57;;
49123;SDS011;48506;48.202;16.274;2023-03-08T13:42:55;22.63;;;12.75;;
49123;SDS011;48506;48.202;16.274;2023-03-08T13:45:27;25.50;;;12.85;;
49123;SDS011;48506;48.202;16.274;2023-03-08T13:47:54;26.10;;;13.25;;
49123;SDS011;48506;48.202;16.274;2023-03-08T13:50:26;22.83;;;13.97;;
49123;SDS011;48506;48.202;16.274;2023-03-08T13:52:59;23.33;;;13.40;;
49123;SDS011;48506;48.202;16.274;2023-03-08T13:55:34;22.33;;;12.68;;
49123;SDS011;48506;48.202;16.274;2023-03-08T13:58:04;23.65;;;13.75;;
49123;SDS011;48506;48.202;16.274;2023-03-08T14:00:31;22.35;;;12.70;;
49123;SDS011;48506;48.202;16.274;2023-03-08T14:02:59;20.48;;;11.55;;
49123;SDS011;48506;48.202;16.274;2023-03-08T14:05:29;22.23;;;12.83;;
49123;SDS011;48506;48.202;16.274;2023-03-08T14:08:01;18.60;;;10.80;;
49123;SDS011;48506;48.202;16.274;2023-03-08T14:10:34;24.63;;;13.32;;
49123;SDS011;48506;48.202;16.274;2023-03-08T14:13:03;22.27;;;12.73;;
49123;SDS011;48506;48.202;16.274;2023-03-08T14:15:32;20.52;;;11.38;;
49123;SDS011;48506;48.202;16.274;2023-03-08T14:18:02;18.42;;;11.00;;
49123;SDS011;48506;48.202;16.274;2023-03-08T14:20:29;21.70;;;12.25;;
49123;SDS011;48506;48.202;16.274;2023-03-08T14:22:55;23.63;;;13.05;;
49123;SDS011;48506;48.202;16.274;2023-03-08T14:25:23;23.63;;;11.95;;
49123;SDS011;48506;48.202;16.274;2023-03-08T14:27:56;17.48;;;11.52;;
49123;SDS011;48506;48.202;16.274;2023-03-08T14:30:24;21.35;;;12.02;;
49123;SDS011;48506;48.202;16.274;2023-03-08T14:32:59;19.05;;;12.45;;
49123;SDS011;48506;48.202;16.274;2023-03-08T14:35:28;22.27;;;12.00;;
49123;SDS011;48506;48.202;16.274;2023-03-08T14:38:11;23.27;;;11.18;;
49123;SDS011;48506;48.202;16.274;2023-03-08T14:41:01;19.30;;;11.30;;
49123;SDS011;48506;48.202;16.274;2023-03-08T14:43:30;21.65;;;10.82;;
49123;SDS011;48506;48.202;16.274;2023-03-08T14:46:03;19.13;;;11.18;;
49123;SDS011;48506;48.202;16.274;2023-03-08T14:48:33;22.85;;;10.38;;
49123;SDS011;48506;48.202;16.274;2023-03-08T14:53:38;16.80;;;10.65;;
49123;SDS011;48506;48.202;16.274;2023-03-08T14:56:12;20.73;;;11.35;;
49123;SDS011;48506;48.202;16.274;2023-03-08T14:58:40;21.35;;;11.27;;
49123;SDS011;48506;48.202;16.274;2023-03-08T15:01:26;19.58;;;11.20;;
49123;SDS011;48506;48.202;16.274;2023-03-08T15:03:52;18.92;;;10.27;;
49123;SDS011;48506;48.202;16.274;2023-03-08T15:06:24;19.33;;;11.10;;
49123;SDS011;48506;48.202;16.274;2023-03-08T15:09:00;19.60;;;10.77;;
49123;SDS011;48506;48.202;16.274;2023-03-08T15:11:28;28.42;;;21.92;;
49123;SDS011;48506;48.202;16.274;2023-03-08T15:13:56;20.50;;;12.23;;
49123;SDS011;48506;48.202;16.274;2023-03-08T15:16:23;30.00;;;19.08;;
49123;SDS011;48506;48.202;16.274;2023-03-08T15:18:49;19.33;;;11.25;;
49123;SDS011;48506;48.202;16.274;2023-03-08T15:21:22;16.67;;;10.30;;
49123;SDS011;48506;48.202;16.274;2023-03-08T15:23:51;18.30;;;9.75;;
49123;SDS011;48506;48.202;16.274;2023-03-08T15:26:22;18.58;;;10.50;;
49123;SDS011;48506;48.202;16.274;2023-03-08T15:28:50;16.85;;;9.20;;
49123;SDS011;48506;48.202;16.274;2023-03-08T15:31:16;16.77;;;10.48;;
49123;SDS011;48506;48.202;16.274;2023-03-08T15:33:43;21.75;;;10.48;;
49123;SDS011;48506;48.202;16.274;2023-03-08T15:36:11;18.17;;;10.73;;
49123;SDS011;48506;48.202;16.274;2023-03-08T15:38:39;15.45;;;10.20;;
49123;SDS011;48506;48.202;16.274;2023-03-08T15:41:05;20.20;;;9.77;;
49123;SDS011;48506;48.202;16.274;2023-03-08T15:43:35;16.55;;;10.25;;
49123;SDS011;48506;48.202;16.274;2023-03-08T15:46:01;20.40;;;10.30;;
49123;SDS011;48506;48.202;16.274;2023-03-08T15:48:28;16.40;;;9.77;;
49123;SDS011;48506;48.202;16.274;2023-03-08T15:50:55;15.35;;;9.13;;
49123;SDS011;48506;48.202;16.274;2023-03-08T15:53:22;17.50;;;10.27;;
49123;SDS011;48506;48.202;16.274;2023-03-08T15:55:49;13.55;;;9.48;;
49123;SDS011;48506;48.202;16.274;2023-03-08T15:58:15;18.48;;;10.70;;
49123;SDS011;48506;48.202;16.274;2023-03-08T16:00:41;21.33;;;10.80;;
49123;SDS011;48506;48.202;16.274;2023-03-08T16:03:08;20.27;;;10.02;;